createdAt,value
2023-01-13T00:01:17.483Z,7.88
2023-01-13T00:03:46.403Z,7.75
2023-01-13T00:06:15.964Z,7.63
2023-01-13T00:08:43.768Z,7.62
2023-01-13T00:11:12.062Z,7.73
2023-01-13T00:13:41.150Z,7.82
2023-01-13T00:16:12.283Z,7.73
2023-01-13T00:18:40.000Z,8.09
2023-01-13T00:21:09.612Z,8.15
2023-01-13T00:23:37.724Z,8.07
2023-01-13T00:26:07.897Z,8.07
2023-01-13T00:28:35.784Z,8.28
2023-01-13T00:31:08.199Z,8.22
2023-01-13T00:33:36.702Z,8.30
2023-01-13T00:36:06.374Z,8.31
2023-01-13T00:38:35.763Z,8.34
2023-01-13T00:41:05.242Z,8.17
2023-01-13T00:43:33.761Z,8.29
2023-01-13T00:46:02.041Z,8.37
2023-01-13T00:48:32.695Z,8.72
2023-01-13T00:51:01.979Z,8.80
2023-01-13T00:53:30.578Z,8.60
2023-01-13T00:56:01.969Z,8.50
2023-01-13T00:58:33.107Z,8.68
2023-01-13T01:01:01.611Z,8.70
2023-01-13T01:03:31.292Z,8.61
2023-01-13T01:06:04.641Z,8.76
2023-01-13T01:08:32.439Z,8.75
2023-01-13T01:11:07.978Z,8.68
2023-01-13T01:13:36.407Z,8.72
2023-01-13T01:16:07.239Z,8.72
2023-01-13T01:18:37.528Z,8.68
2023-01-13T01:21:06.445Z,8.68
2023-01-13T01:23:35.130Z,8.77
2023-01-13T01:26:03.835Z,8.91
2023-01-13T01:28:32.036Z,8.89
2023-01-13T01:30:59.969Z,8.82
2023-01-13T01:33:28.079Z,8.78
2023-01-13T01:35:57.519Z,8.68
2023-01-13T01:38:25.267Z,8.53
2023-01-13T01:40:53.051Z,8.45
2023-01-13T01:43:40.153Z,8.32
2023-01-13T01:46:08.199Z,8.17
2023-01-13T01:48:41.879Z,8.08
2023-01-13T01:51:14.322Z,8.11
2023-01-13T01:53:42.883Z,8.12
2023-01-13T01:56:12.159Z,7.93
2023-01-13T01:58:45.713Z,7.85
2023-01-13T02:01:14.304Z,7.73
2023-01-13T02:03:46.283Z,7.80
2023-01-13T02:06:17.154Z,8.00
2023-01-13T02:08:45.279Z,8.03
2023-01-13T02:11:42.688Z,8.39
2023-01-13T02:14:10.524Z,8.59
2023-01-13T02:16:41.881Z,8.53
2023-01-13T02:19:29.926Z,8.53
2023-01-13T02:22:20.163Z,8.49
2023-01-13T02:25:06.196Z,8.51
2023-01-13T02:27:53.825Z,8.73
2023-01-13T02:31:01.177Z,8.69
2023-01-13T02:33:59.690Z,8.62
2023-01-13T02:36:36.120Z,8.57
2023-01-13T02:39:11.185Z,8.54
2023-01-13T02:42:01.596Z,8.65
2023-01-13T02:44:34.961Z,8.69
2023-01-13T02:47:10.419Z,8.73
2023-01-13T02:49:45.086Z,8.73
2023-01-13T02:52:17.103Z,8.74
2023-01-13T02:54:49.363Z,8.79
2023-01-13T02:57:19.388Z,8.67
2023-01-13T02:59:48.933Z,8.57
2023-01-13T03:02:21.382Z,8.48
2023-01-13T03:04:57.735Z,8.41
2023-01-13T03:07:58.372Z,8.33
2023-01-13T03:10:48.931Z,8.27
2023-01-13T03:13:32.105Z,8.17
2023-01-13T03:16:09.941Z,8.00
2023-01-13T03:18:46.521Z,7.88
2023-01-13T03:21:21.438Z,7.84
2023-01-13T03:23:52.822Z,7.86
2023-01-13T03:26:27.713Z,7.91
2023-01-13T03:29:00.106Z,7.87
2023-01-13T03:31:33.238Z,7.85
2023-01-13T03:34:08.681Z,7.80
2023-01-13T03:36:40.050Z,7.86
2023-01-13T03:39:13.340Z,7.84
2023-01-13T03:41:47.503Z,7.95
2023-01-13T03:44:23.557Z,7.92
2023-01-13T03:47:00.461Z,7.87
2023-01-13T03:49:37.607Z,7.95
2023-01-13T03:52:10.987Z,7.92
2023-01-13T03:54:46.467Z,7.98
2023-01-13T03:57:19.065Z,7.84
2023-01-13T03:59:52.071Z,7.84
2023-01-13T04:02:26.816Z,7.80
2023-01-13T04:04:59.909Z,7.77
2023-01-13T04:07:38.944Z,7.74
2023-01-13T04:10:09.773Z,7.83
2023-01-13T04:12:59.248Z,7.91
2023-01-13T04:15:29.204Z,8.05
2023-01-13T04:18:03.603Z,8.05
2023-01-13T04:20:33.182Z,7.96
2023-01-13T04:23:01.106Z,8.01
2023-01-13T04:25:28.919Z,7.90
2023-01-13T04:27:56.724Z,8.01
2023-01-13T04:30:24.631Z,8.04
2023-01-13T04:32:52.578Z,8.24
2023-01-13T04:35:20.396Z,8.32
2023-01-13T04:37:49.557Z,8.41
2023-01-13T04:40:17.892Z,8.47
2023-01-13T04:42:45.697Z,8.50
2023-01-13T04:45:14.143Z,8.58
2023-01-13T04:47:42.875Z,8.58
2023-01-13T04:50:12.470Z,8.57
2023-01-13T04:52:40.560Z,8.50
2023-01-13T04:55:11.427Z,8.59
2023-01-13T04:57:39.300Z,8.54
2023-01-13T05:00:08.746Z,8.54
2023-01-13T05:02:36.495Z,8.40
2023-01-13T05:05:04.571Z,8.39
2023-01-13T05:07:32.923Z,8.46
2023-01-13T05:10:00.835Z,8.44
2023-01-13T05:12:47.236Z,8.32
2023-01-13T05:15:34.331Z,8.37
2023-01-13T05:18:02.761Z,8.34
2023-01-13T05:20:30.494Z,8.24
2023-01-13T05:23:15.618Z,8.27
2023-01-13T05:25:44.815Z,8.14
2023-01-13T05:28:13.894Z,8.10
2023-01-13T05:30:43.600Z,8.07
2023-01-13T05:33:12.621Z,8.01
2023-01-13T05:35:41.548Z,7.90
2023-01-13T05:38:10.165Z,7.98
2023-01-13T05:40:59.335Z,7.97
2023-01-13T05:43:29.274Z,8.05
2023-01-13T05:45:59.825Z,8.05
2023-01-13T05:48:29.949Z,8.02
2023-01-13T05:50:58.410Z,8.11
2023-01-13T05:53:27.219Z,8.14
2023-01-13T05:55:55.780Z,8.18
2023-01-13T05:58:25.488Z,8.09
2023-01-13T06:00:59.929Z,8.05
2023-01-13T06:03:27.946Z,7.98
2023-01-13T06:05:58.778Z,7.90
2023-01-13T06:08:27.280Z,7.85
2023-01-13T06:10:55.164Z,7.81
2023-01-13T06:13:25.333Z,7.77
2023-01-13T06:15:57.139Z,7.62
2023-01-13T06:18:25.297Z,7.60
2023-01-13T06:20:53.088Z,7.64
2023-01-13T06:23:21.165Z,7.58
2023-01-13T06:25:56.586Z,7.61
2023-01-13T06:28:24.549Z,7.72
2023-01-13T06:30:58.783Z,7.71
2023-01-13T06:33:31.282Z,7.83
2023-01-13T06:36:02.706Z,7.83
2023-01-13T06:38:32.898Z,7.79
2023-01-13T06:41:00.607Z,7.86
2023-01-13T06:43:27.515Z,7.80
2023-01-13T06:45:57.790Z,7.83
2023-01-13T06:48:29.683Z,8.12
2023-01-13T06:50:57.551Z,7.97
2023-01-13T06:53:25.429Z,8.19
2023-01-13T06:55:53.176Z,7.84
2023-01-13T06:58:20.959Z,7.81
2023-01-13T07:00:51.294Z,7.72
2023-01-13T07:03:21.415Z,7.65
2023-01-13T07:05:53.409Z,7.70
2023-01-13T07:08:21.642Z,7.67
2023-01-13T07:10:49.406Z,7.66
2023-01-13T07:13:34.443Z,7.74
2023-01-13T07:16:04.940Z,7.78
2023-01-13T07:18:35.430Z,7.77
2023-01-13T07:21:05.874Z,7.77
2023-01-13T07:23:35.759Z,7.70
2023-01-13T07:26:03.988Z,7.71
2023-01-13T07:28:32.423Z,7.76
2023-01-13T07:31:00.779Z,7.85
2023-01-13T07:33:29.229Z,7.83
2023-01-13T07:36:00.067Z,7.82
2023-01-13T07:38:28.556Z,7.77
2023-01-13T07:40:57.442Z,7.91
2023-01-13T07:43:33.067Z,7.86
2023-01-13T07:46:02.908Z,7.91
2023-01-13T07:48:31.298Z,7.95
2023-01-13T07:51:04.274Z,7.92
2023-01-13T07:53:32.691Z,8.00
2023-01-13T07:56:01.479Z,7.99
2023-01-13T07:58:30.642Z,8.03
2023-01-13T08:00:59.008Z,8.06
2023-01-13T08:03:28.053Z,7.99
2023-01-13T08:05:55.900Z,8.00
2023-01-13T08:08:25.085Z,7.95
2023-01-13T08:10:52.886Z,7.96
2023-01-13T08:13:21.237Z,7.97
2023-01-13T08:15:50.901Z,7.94
2023-01-13T08:18:21.188Z,7.93
2023-01-13T08:20:49.862Z,7.91
2023-01-13T08:23:17.806Z,7.82
2023-01-13T08:25:47.388Z,7.87
2023-01-13T08:28:16.051Z,7.84
2023-01-13T08:30:44.440Z,7.73
2023-01-13T08:33:13.882Z,7.88
2023-01-13T08:35:42.896Z,7.95
2023-01-13T08:38:10.650Z,7.94
2023-01-13T08:40:40.332Z,8.02
2023-01-13T08:43:09.444Z,8.21
2023-01-13T08:45:37.358Z,8.28
2023-01-13T08:48:06.025Z,8.26
2023-01-13T08:50:34.024Z,8.40
2023-01-13T08:53:01.777Z,8.49
2023-01-13T08:55:29.635Z,8.35
2023-01-13T08:58:14.311Z,8.34
2023-01-13T09:00:45.050Z,8.51
2023-01-13T09:03:12.885Z,8.71
2023-01-13T09:05:40.704Z,8.63
2023-01-13T09:08:08.554Z,8.80
2023-01-13T09:10:36.936Z,8.57
2023-01-13T09:13:12.602Z,8.68
2023-01-13T09:15:42.151Z,8.69
2023-01-13T09:18:11.542Z,8.71
2023-01-13T09:20:40.075Z,8.64
2023-01-13T09:23:10.729Z,8.67
2023-01-13T09:25:38.930Z,8.83
2023-01-13T09:28:08.482Z,9.13
2023-01-13T09:30:37.916Z,9.36
2023-01-13T09:33:23.687Z,9.46
2023-01-13T09:35:53.134Z,9.29
2023-01-13T09:38:20.964Z,9.20
2023-01-13T09:40:50.729Z,9.17
2023-01-13T09:43:40.575Z,9.27
2023-01-13T09:46:36.609Z,8.96
2023-01-13T09:49:05.418Z,8.83
2023-01-13T09:51:41.640Z,8.80
2023-01-13T09:54:16.200Z,8.68
2023-01-13T09:56:44.215Z,8.82
2023-01-13T09:59:13.231Z,8.69
2023-01-13T10:01:51.774Z,8.93
2023-01-13T10:04:19.827Z,8.86
2023-01-13T10:06:54.129Z,8.89
2023-01-13T10:09:28.196Z,8.69
2023-01-13T10:12:16.409Z,8.76
2023-01-13T10:14:56.175Z,9.04
2023-01-13T10:17:31.653Z,9.30
2023-01-13T10:20:13.228Z,9.33
2023-01-13T10:23:01.912Z,9.61
2023-01-13T10:25:42.911Z,9.74
2023-01-13T10:28:12.706Z,9.47
2023-01-13T10:30:42.165Z,9.48
2023-01-13T10:33:17.581Z,9.56
2023-01-13T10:35:57.823Z,9.28
2023-01-13T10:38:30.245Z,9.26
2023-01-13T10:40:59.972Z,8.98
2023-01-13T10:43:29.211Z,8.86
2023-01-13T10:46:04.000Z,8.75
2023-01-13T10:48:38.672Z,8.92
2023-01-13T10:51:25.229Z,9.07
2023-01-13T10:54:00.508Z,9.21
2023-01-13T10:56:31.279Z,9.45
2023-01-13T10:59:17.049Z,9.45
2023-01-13T11:01:58.238Z,9.58
2023-01-13T11:04:32.324Z,9.34
2023-01-13T11:07:04.652Z,9.42
2023-01-13T11:09:34.150Z,9.38
2023-01-13T11:12:03.071Z,9.50
2023-01-13T11:14:39.523Z,9.57
2023-01-13T11:17:38.530Z,9.63
2023-01-13T11:20:18.576Z,9.48
2023-01-13T11:22:49.013Z,9.19
2023-01-13T11:25:24.158Z,9.64
2023-01-13T11:27:59.052Z,9.33
2023-01-13T11:30:35.432Z,9.33
2023-01-13T11:33:17.972Z,9.16
2023-01-13T11:35:49.914Z,9.01
2023-01-13T11:38:28.458Z,9.09
2023-01-13T11:41:04.858Z,9.01
2023-01-13T11:43:39.425Z,9.02
2023-01-13T11:46:07.663Z,8.96
2023-01-13T11:48:44.031Z,8.95
2023-01-13T11:51:26.298Z,8.87
2023-01-13T11:54:01.246Z,8.93
2023-01-13T11:56:53.215Z,8.80
2023-01-13T11:59:55.938Z,8.97
2023-01-13T12:02:40.727Z,9.25
2023-01-13T12:05:20.231Z,9.39
2023-01-13T12:07:59.981Z,9.56
2023-01-13T12:10:43.846Z,9.45
2023-01-13T12:13:24.320Z,9.23
2023-01-13T12:16:24.579Z,9.51
2023-01-13T12:19:28.035Z,9.63
2023-01-13T12:22:12.632Z,9.73
2023-01-13T12:24:49.373Z,9.66
2023-01-13T12:27:23.696Z,9.61
2023-01-13T12:29:58.310Z,9.33
2023-01-13T12:32:34.493Z,9.23
2023-01-13T12:35:18.516Z,9.31
2023-01-13T12:37:54.045Z,9.13
2023-01-13T12:40:38.867Z,9.23
2023-01-13T12:43:34.210Z,9.15
2023-01-13T12:46:53.196Z,9.18
2023-01-13T12:49:28.625Z,9.07
2023-01-13T12:52:13.838Z,8.96
2023-01-13T12:55:13.696Z,8.74
2023-01-13T12:58:14.178Z,8.78
2023-01-13T13:00:58.065Z,8.74
2023-01-13T13:03:32.243Z,8.77
2023-01-13T13:06:07.387Z,9.00
2023-01-13T13:09:03.672Z,8.93
2023-01-13T13:12:02.125Z,8.66
2023-01-13T13:15:04.636Z,8.61
2023-01-13T13:17:45.420Z,8.60
2023-01-13T13:20:53.865Z,8.66
2023-01-13T13:23:47.978Z,9.05
2023-01-13T13:26:25.087Z,8.99
2023-01-13T13:29:29.826Z,8.95
2023-01-13T13:32:19.249Z,9.02
2023-01-13T13:34:53.941Z,9.17
2023-01-13T13:38:09.621Z,9.28
2023-01-13T13:41:03.214Z,9.11
2023-01-13T13:43:56.215Z,9.19
2023-01-13T13:46:44.083Z,9.22
2023-01-13T13:49:12.148Z,9.26
2023-01-13T13:51:45.188Z,9.55
2023-01-13T13:54:16.466Z,9.82
2023-01-13T13:56:47.950Z,9.60
2023-01-13T13:59:19.995Z,9.69
2023-01-13T14:01:51.785Z,9.74
2023-01-13T14:04:23.439Z,9.68
2023-01-13T14:06:54.528Z,9.73
2023-01-13T14:09:23.525Z,9.72
2023-01-13T14:12:01.528Z,9.79
2023-01-13T14:14:30.043Z,9.53
2023-01-13T14:16:58.728Z,9.36
2023-01-13T14:19:32.571Z,9.38
2023-01-13T14:22:02.238Z,9.30
2023-01-13T14:24:31.113Z,9.13
2023-01-13T14:27:11.489Z,9.09
2023-01-13T14:29:39.655Z,8.92
2023-01-13T14:32:08.827Z,8.81
2023-01-13T14:34:37.799Z,8.54
2023-01-13T14:37:24.875Z,8.66
2023-01-13T14:39:52.683Z,8.70
2023-01-13T14:42:22.537Z,8.87
2023-01-13T14:44:52.093Z,8.96
2023-01-13T14:47:23.898Z,9.18
2023-01-13T14:49:58.982Z,9.20
2023-01-13T14:52:29.165Z,9.07
2023-01-13T14:55:25.481Z,9.22
2023-01-13T14:57:54.843Z,9.29
2023-01-13T15:00:24.970Z,9.30
2023-01-13T15:03:08.446Z,9.28
2023-01-13T15:05:47.578Z,9.41
2023-01-13T15:08:37.979Z,9.50
2023-01-13T15:11:08.228Z,9.43
2023-01-13T15:13:52.411Z,9.45
2023-01-13T15:16:25.035Z,9.44
2023-01-13T15:18:53.615Z,9.35
2023-01-13T15:21:22.043Z,9.23
2023-01-13T15:23:50.210Z,9.21
2023-01-13T15:26:21.382Z,9.08
2023-01-13T15:28:51.611Z,9.06
2023-01-13T15:31:20.322Z,8.92
2023-01-13T15:33:48.559Z,8.81
2023-01-13T15:36:24.211Z,8.61
2023-01-13T15:38:52.432Z,8.48
2023-01-13T15:41:41.909Z,8.43
2023-01-13T15:44:31.322Z,8.45
2023-01-13T15:47:02.110Z,8.07
2023-01-13T15:49:36.223Z,7.72
2023-01-13T15:52:05.498Z,7.65
2023-01-13T15:54:33.291Z,7.46
2023-01-13T15:57:01.108Z,7.36
2023-01-13T15:59:30.273Z,7.24
2023-01-13T16:01:58.121Z,7.04
2023-01-13T16:04:25.973Z,6.84
2023-01-13T16:06:53.808Z,6.56
2023-01-13T16:09:21.699Z,6.72
2023-01-13T16:11:49.505Z,6.70
2023-01-13T16:14:17.281Z,6.56
2023-01-13T16:16:46.461Z,6.50
2023-01-13T16:19:14.610Z,6.64
2023-01-13T16:21:42.468Z,6.52
2023-01-13T16:24:10.348Z,6.51
2023-01-13T16:26:38.981Z,6.33
2023-01-13T16:29:07.831Z,6.39
2023-01-13T16:31:36.171Z,6.43
2023-01-13T16:34:06.308Z,6.30
2023-01-13T16:36:36.777Z,6.38
2023-01-13T16:39:06.154Z,6.53
2023-01-13T16:41:34.790Z,6.48
2023-01-13T16:44:06.088Z,6.49
2023-01-13T16:46:34.466Z,6.47
2023-01-13T16:49:05.982Z,6.51
2023-01-13T16:51:34.264Z,6.57
2023-01-13T16:54:02.332Z,6.25
2023-01-13T16:56:32.326Z,6.32
2023-01-13T16:59:03.144Z,6.36
2023-01-13T17:01:32.410Z,6.46
2023-01-13T17:04:00.840Z,6.21
2023-01-13T17:06:33.956Z,6.39
2023-01-13T17:09:03.167Z,6.20
2023-01-13T17:11:31.044Z,6.20
2023-01-13T17:13:58.909Z,6.14
2023-01-13T17:16:28.240Z,6.26
2023-01-13T17:18:56.577Z,6.30
2023-01-13T17:21:24.648Z,6.36
2023-01-13T17:23:53.814Z,6.49
2023-01-13T17:26:33.795Z,6.37
2023-01-13T17:29:02.601Z,6.42
2023-01-13T17:31:31.195Z,6.33
2023-01-13T17:33:59.297Z,6.40
2023-01-13T17:36:27.162Z,6.48
2023-01-13T17:38:57.535Z,6.44
2023-01-13T17:41:26.227Z,6.40
2023-01-13T17:43:54.228Z,6.40
2023-01-13T17:46:23.106Z,6.46
2023-01-13T17:48:52.701Z,6.38
2023-01-13T17:51:22.502Z,6.36
2023-01-13T17:53:50.471Z,6.37
2023-01-13T17:56:19.770Z,6.38
2023-01-13T17:58:47.856Z,6.31
2023-01-13T18:01:18.355Z,6.45
2023-01-13T18:03:46.906Z,6.52
2023-01-13T18:06:17.480Z,6.61
2023-01-13T18:08:45.849Z,6.73
2023-01-13T18:11:14.287Z,6.72
2023-01-13T18:13:43.812Z,6.72
2023-01-13T18:16:14.059Z,6.69
2023-01-13T18:18:43.822Z,6.80
2023-01-13T18:21:35.798Z,6.83
2023-01-13T18:24:21.061Z,6.81
2023-01-13T18:27:06.271Z,6.81
2023-01-13T18:29:35.353Z,6.95
2023-01-13T18:32:03.204Z,6.88
2023-01-13T18:34:30.953Z,6.85
2023-01-13T18:36:58.752Z,6.78
2023-01-13T18:39:26.765Z,6.67
2023-01-13T18:42:11.796Z,6.65
2023-01-13T18:44:40.950Z,6.60
2023-01-13T18:47:09.058Z,6.57
2023-01-13T18:49:37.016Z,6.64
2023-01-13T18:52:05.172Z,6.66
2023-01-13T18:54:33.037Z,6.54
2023-01-13T18:57:02.792Z,6.61
2023-01-13T18:59:31.020Z,6.78
2023-01-13T19:02:00.393Z,6.83
2023-01-13T19:04:28.522Z,6.87
2023-01-13T19:07:00.871Z,6.80
2023-01-13T19:09:29.768Z,6.74
2023-01-13T19:11:59.170Z,6.83
2023-01-13T19:14:37.667Z,6.83
2023-01-13T19:17:09.776Z,6.76
2023-01-13T19:19:42.212Z,6.81
2023-01-13T19:22:10.793Z,6.88
2023-01-13T19:24:41.833Z,6.95
2023-01-13T19:27:09.978Z,6.89
2023-01-13T19:29:37.835Z,7.02
2023-01-13T19:32:15.623Z,7.06
2023-01-13T19:34:44.140Z,7.13
2023-01-13T19:37:12.159Z,7.14
2023-01-13T19:39:40.240Z,7.21
2023-01-13T19:42:25.900Z,7.26
2023-01-13T19:45:11.137Z,7.17
2023-01-13T19:47:40.944Z,7.37
2023-01-13T19:50:10.745Z,7.24
2023-01-13T19:52:38.536Z,7.43
2023-01-13T19:55:07.279Z,7.33
2023-01-13T19:57:35.098Z,7.40
2023-01-13T20:00:03.970Z,7.47
2023-01-13T20:02:32.409Z,7.50
2023-01-13T20:05:05.613Z,7.48
2023-01-13T20:07:35.141Z,7.45
2023-01-13T20:10:03.337Z,7.38
2023-01-13T20:12:31.410Z,7.30
2023-01-13T20:14:59.151Z,7.12
2023-01-13T20:17:26.980Z,7.01
2023-01-13T20:19:54.784Z,6.93
2023-01-13T20:22:24.087Z,6.78
2023-01-13T20:24:55.131Z,6.62
2023-01-13T20:27:24.818Z,6.59
2023-01-13T20:29:52.766Z,6.40
2023-01-13T20:32:20.511Z,6.24
2023-01-13T20:34:48.391Z,6.15
2023-01-13T20:37:16.212Z,5.98
2023-01-13T20:39:45.789Z,5.96
2023-01-13T20:42:34.241Z,5.93
2023-01-13T20:45:02.327Z,6.00
2023-01-13T20:47:31.210Z,6.25
2023-01-13T20:50:00.003Z,6.36
2023-01-13T20:52:28.940Z,6.57
2023-01-13T20:54:58.022Z,6.75
2023-01-13T20:57:25.860Z,6.76
2023-01-13T20:59:53.655Z,6.88
2023-01-13T21:02:23.212Z,6.97
2023-01-13T21:04:50.982Z,7.01
2023-01-13T21:07:19.059Z,7.03
2023-01-13T21:09:46.940Z,7.04
2023-01-13T21:12:35.317Z,6.93
2023-01-13T21:15:16.995Z,7.03
2023-01-13T21:18:02.381Z,7.02
2023-01-13T21:20:33.053Z,7.12
2023-01-13T21:23:02.581Z,7.08
2023-01-13T21:25:31.160Z,7.30
2023-01-13T21:28:05.485Z,7.22
2023-01-13T21:30:33.513Z,7.20
2023-01-13T21:33:03.839Z,7.23
2023-01-13T21:35:31.752Z,7.25
2023-01-13T21:37:59.769Z,7.14
2023-01-13T21:40:27.638Z,7.29
2023-01-13T21:43:12.988Z,7.30
2023-01-13T21:45:59.743Z,7.32
2023-01-13T21:48:27.919Z,7.32
2023-01-13T21:50:55.733Z,7.24
2023-01-13T21:53:23.556Z,7.17
2023-01-13T21:55:52.329Z,6.98
2023-01-13T21:58:20.521Z,7.06
2023-01-13T22:00:50.030Z,6.93
2023-01-13T22:03:18.809Z,6.86
2023-01-13T22:05:47.195Z,6.75
2023-01-13T22:08:14.976Z,6.64
2023-01-13T22:10:57.273Z,6.56
2023-01-13T22:13:43.197Z,6.49
2023-01-13T22:16:12.473Z,6.49
2023-01-13T22:18:40.264Z,6.31
2023-01-13T22:21:08.096Z,6.24
2023-01-13T22:23:35.913Z,6.26
2023-01-13T22:26:04.282Z,6.02
2023-01-13T22:28:34.311Z,6.11
2023-01-13T22:31:02.894Z,6.13
2023-01-13T22:33:32.098Z,6.07
2023-01-13T22:36:00.146Z,6.01
2023-01-13T22:38:27.933Z,5.91
2023-01-13T22:40:59.066Z,5.86
2023-01-13T22:43:27.992Z,5.94
2023-01-13T22:45:59.679Z,5.84
2023-01-13T22:48:28.550Z,5.92
2023-01-13T22:50:57.771Z,5.82
2023-01-13T22:53:25.609Z,5.84
2023-01-13T22:55:56.599Z,5.77
2023-01-13T22:58:24.726Z,5.68
2023-01-13T23:00:52.701Z,5.71
2023-01-13T23:03:20.624Z,5.77
2023-01-13T23:05:48.459Z,5.78
2023-01-13T23:08:17.591Z,5.75
2023-01-13T23:10:45.394Z,5.77
2023-01-13T23:13:13.187Z,5.67
2023-01-13T23:15:41.073Z,5.75
2023-01-13T23:18:08.849Z,5.70
2023-01-13T23:20:36.865Z,5.65
2023-01-13T23:23:04.940Z,5.63
2023-01-13T23:25:34.202Z,5.63
2023-01-13T23:28:02.014Z,5.63
2023-01-13T23:30:30.141Z,5.59
2023-01-13T23:32:58.016Z,5.62
2023-01-13T23:35:25.756Z,5.62
2023-01-13T23:37:53.725Z,5.69
2023-01-13T23:40:21.572Z,5.59
2023-01-13T23:42:50.755Z,5.56
2023-01-13T23:45:18.475Z,5.59
2023-01-13T23:47:46.223Z,5.46
2023-01-13T23:50:14.056Z,5.48
2023-01-13T23:52:41.911Z,5.41
2023-01-13T23:55:10.612Z,5.41
2023-01-13T23:57:40.712Z,5.42
